Aeroporto :
LOGIN :

Iscrizione | Disclaimer

   EN    FR    IT 

 










Sommario :    VFR   VFR Marginale   IFR   IFR Intensivo   IFR Molto Intensivo
Visibilità : 
Base nubi : 
>= 8 km
>= 3000ft
5 / 8 km
1000 / 3000 ft
1500m / 5 km
500 / 1000 ft
800 / 1500m
200 / 500 ft
< 800m
< 200 ft
Simboli :   Temporali  Nebbia  Neve Forte  Precipitazioni Forti  Vento > 20 kt
SIGMETs :   Varie  Temporali  Ghiacco  Turbolenza  Onda orograficha  Ceneri Vulcaniche






- Altitudine del aeroporto : -15 ft
- Codice IATA : RTM


EHRD - Rotterdam Zestienhoven

ULTIMO METAR :
  • 181155Z AUTO 35007KT 300V040 9999 NSC 20/11 Q1021 NOSIG

METARs OBSOLETI :
  • 181125Z AUTO 34007KT 300V040 9999 NSC 21/12 Q1021 NOSIG
  • 181055Z AUTO 32007KT 280V020 9999 BKN046 21/12 Q1021 NOSIG
  • 181025Z AUTO VRB06KT 9999 OVC043 21/13 Q1021 NOSIG
  • 180955Z AUTO 33005KT 250V050 9999 NSC 21/13 Q1021 NOSIG
  • 180925Z AUTO 32006KT 260V020 9999 NSC 20/15 Q1021 NOSIG

TAF TAF EHRD
Valido dal 18 a 12 ore il 19 a 18 ore UTC


181120Z 1812/1918 33005KT 9999 SCT045
TEMPO 1903/1907 7000 SHRA SCT080CB
PROB30
TEMPO 1903/1907 26020G35KT 4500 TSRA
BECMG 1911/1914 28013KT
PROB40
TEMPO 1912/1914 28018G30KT 5000 SHRA TSRA SCT045CB
BECMG 1916/1918 33008KT



MetMap, La meteo Aeronautica in un colpo d'occhio ! - Copyright ORBIFLY Dicembre 2007 - Disclaimer

ORBIFLY MET'MAP TEAM :

Programmazione e sviluppo : Alexandra Zaïnal
Concezione : Baudouin d'Aumeries
Supporto tecnico e logistico : Manuel Goepfert
Aiuto : Marc-Olivier Méhu
Aiuto per la traduzione : Arnaldo La Scala

Contatto : metmap@orbifly.com




FONTI E CREDITI :

   NOAA